sensor_id;sensor_type;location;lat;lon;timestamp;P1;durP1;ratioP1;P2;durP2;ratioP2
14048;SDS011;7099;53.922;10.728;2024-02-14T00:03:48;5.90;;;3.40;;
14048;SDS011;7099;53.922;10.728;2024-02-14T00:07:53;7.93;;;3.43;;
14048;SDS011;7099;53.922;10.728;2024-02-14T00:11:59;6.40;;;3.50;;
14048;SDS011;7099;53.922;10.728;2024-02-14T00:16:05;5.27;;;3.30;;
14048;SDS011;7099;53.922;10.728;2024-02-14T00:20:11;4.23;;;3.10;;
14048;SDS011;7099;53.922;10.728;2024-02-14T00:24:17;6.03;;;2.70;;
14048;SDS011;7099;53.922;10.728;2024-02-14T00:28:23;6.33;;;2.93;;
14048;SDS011;7099;53.922;10.728;2024-02-14T00:32:32;4.23;;;2.70;;
14048;SDS011;7099;53.922;10.728;2024-02-14T00:36:39;6.30;;;2.73;;
14048;SDS011;7099;53.922;10.728;2024-02-14T00:40:44;3.20;;;2.40;;
14048;SDS011;7099;53.922;10.728;2024-02-14T00:44:50;5.73;;;2.70;;
14048;SDS011;7099;53.922;10.728;2024-02-14T01:33:59;2.90;;;1.97;;
14048;SDS011;7099;53.922;10.728;2024-02-14T01:38:07;3.93;;;2.10;;
14048;SDS011;7099;53.922;10.728;2024-02-14T09:54:47;7.47;;;4.20;;
14048;SDS011;7099;53.922;10.728;2024-02-14T09:58:53;9.30;;;4.17;;
14048;SDS011;7099;53.922;10.728;2024-02-14T10:03:04;4.93;;;3.93;;
14048;SDS011;7099;53.922;10.728;2024-02-14T10:07:11;6.20;;;4.30;;
14048;SDS011;7099;53.922;10.728;2024-02-14T10:11:17;5.63;;;4.37;;
14048;SDS011;7099;53.922;10.728;2024-02-14T10:15:26;6.80;;;4.30;;
14048;SDS011;7099;53.922;10.728;2024-02-14T10:19:32;8.00;;;4.20;;
14048;SDS011;7099;53.922;10.728;2024-02-14T10:23:38;6.10;;;4.00;;
14048;SDS011;7099;53.922;10.728;2024-02-14T10:27:45;6.00;;;4.23;;
14048;SDS011;7099;53.922;10.728;2024-02-14T11:00:49;7.53;;;5.00;;
14048;SDS011;7099;53.922;10.728;2024-02-14T11:04:56;5.80;;;4.23;;
14048;SDS011;7099;53.922;10.728;2024-02-14T11:09:02;7.23;;;4.93;;
14048;SDS011;7099;53.922;10.728;2024-02-14T11:13:15;5.20;;;4.53;;
14048;SDS011;7099;53.922;10.728;2024-02-14T11:21:31;8.50;;;4.97;;
14048;SDS011;7099;53.922;10.728;2024-02-14T11:26:01;7.93;;;4.57;;
14048;SDS011;7099;53.922;10.728;2024-02-14T11:30:10;5.77;;;4.27;;
14048;SDS011;7099;53.922;10.728;2024-02-14T11:34:16;9.03;;;4.60;;
14048;SDS011;7099;53.922;10.728;2024-02-14T11:38:23;5.47;;;4.07;;
14048;SDS011;7099;53.922;10.728;2024-02-14T11:42:31;8.37;;;4.60;;
14048;SDS011;7099;53.922;10.728;2024-02-14T11:46:36;11.10;;;5.30;;
14048;SDS011;7099;53.922;10.728;2024-02-14T11:50:43;9.83;;;5.27;;
14048;SDS011;7099;53.922;10.728;2024-02-14T11:54:50;10.47;;;5.10;;
14048;SDS011;7099;53.922;10.728;2024-02-14T11:58:55;7.43;;;5.10;;
14048;SDS011;7099;53.922;10.728;2024-02-14T12:03:01;6.67;;;4.97;;
14048;SDS011;7099;53.922;10.728;2024-02-14T12:07:09;6.40;;;4.97;;
14048;SDS011;7099;53.922;10.728;2024-02-14T12:11:15;8.93;;;5.80;;
14048;SDS011;7099;53.922;10.728;2024-02-14T12:19:26;6.07;;;4.90;;
14048;SDS011;7099;53.922;10.728;2024-02-14T12:23:36;8.17;;;4.70;;
14048;SDS011;7099;53.922;10.728;2024-02-14T12:27:42;5.93;;;4.90;;
14048;SDS011;7099;53.922;10.728;2024-02-14T12:31:47;9.60;;;4.77;;
14048;SDS011;7099;53.922;10.728;2024-02-14T12:35:54;7.00;;;5.30;;
14048;SDS011;7099;53.922;10.728;2024-02-14T12:40:01;6.10;;;4.57;;
14048;SDS011;7099;53.922;10.728;2024-02-14T12:48:12;8.40;;;4.77;;
14048;SDS011;7099;53.922;10.728;2024-02-14T12:52:20;6.27;;;5.37;;
14048;SDS011;7099;53.922;10.728;2024-02-14T12:56:25;6.50;;;4.90;;
14048;SDS011;7099;53.922;10.728;2024-02-14T13:00:31;5.80;;;5.00;;
14048;SDS011;7099;53.922;10.728;2024-02-14T13:04:37;6.63;;;5.17;;
14048;SDS011;7099;53.922;10.728;2024-02-14T13:08:43;5.57;;;4.97;;
14048;SDS011;7099;53.922;10.728;2024-02-14T13:12:50;6.60;;;5.10;;
14048;SDS011;7099;53.922;10.728;2024-02-14T13:16:56;10.50;;;4.63;;
14048;SDS011;7099;53.922;10.728;2024-02-14T13:21:01;4.93;;;4.30;;
14048;SDS011;7099;53.922;10.728;2024-02-14T13:25:08;5.93;;;4.20;;
14048;SDS011;7099;53.922;10.728;2024-02-14T13:29:13;4.83;;;4.33;;
14048;SDS011;7099;53.922;10.728;2024-02-14T13:33:19;4.20;;;3.80;;
14048;SDS011;7099;53.922;10.728;2024-02-14T13:37:25;5.60;;;4.30;;
14048;SDS011;7099;53.922;10.728;2024-02-14T13:41:30;4.73;;;4.23;;
14048;SDS011;7099;53.922;10.728;2024-02-14T13:45:40;5.00;;;4.23;;
14048;SDS011;7099;53.922;10.728;2024-02-14T13:49:47;4.40;;;3.83;;
14048;SDS011;7099;53.922;10.728;2024-02-14T13:53:53;5.33;;;4.30;;
14048;SDS011;7099;53.922;10.728;2024-02-14T13:58:00;4.17;;;3.77;;
14048;SDS011;7099;53.922;10.728;2024-02-14T14:02:06;7.40;;;3.93;;
14048;SDS011;7099;53.922;10.728;2024-02-14T14:06:11;5.50;;;4.50;;
14048;SDS011;7099;53.922;10.728;2024-02-14T14:10:17;6.60;;;4.70;;
14048;SDS011;7099;53.922;10.728;2024-02-14T14:14:23;7.47;;;4.97;;
14048;SDS011;7099;53.922;10.728;2024-02-14T14:18:31;13.30;;;5.03;;
14048;SDS011;7099;53.922;10.728;2024-02-14T14:22:37;5.50;;;4.87;;
14048;SDS011;7099;53.922;10.728;2024-02-14T14:26:42;6.93;;;5.20;;
14048;SDS011;7099;53.922;10.728;2024-02-14T14:30:48;7.00;;;5.17;;
14048;SDS011;7099;53.922;10.728;2024-02-14T14:34:54;7.53;;;5.07;;
14048;SDS011;7099;53.922;10.728;2024-02-14T14:39:00;9.50;;;5.20;;
14048;SDS011;7099;53.922;10.728;2024-02-14T14:43:06;11.80;;;5.47;;
14048;SDS011;7099;53.922;10.728;2024-02-14T14:47:14;8.10;;;5.37;;
14048;SDS011;7099;53.922;10.728;2024-02-14T14:51:20;6.87;;;5.10;;
14048;SDS011;7099;53.922;10.728;2024-02-14T14:55:26;7.30;;;5.33;;
14048;SDS011;7099;53.922;10.728;2024-02-14T15:00:01;8.60;;;5.77;;
14048;SDS011;7099;53.922;10.728;2024-02-14T15:04:08;9.70;;;4.90;;
14048;SDS011;7099;53.922;10.728;2024-02-14T15:08:13;9.30;;;5.30;;
14048;SDS011;7099;53.922;10.728;2024-02-14T15:12:19;6.97;;;5.00;;
14048;SDS011;7099;53.922;10.728;2024-02-14T15:16:30;8.77;;;5.30;;
14048;SDS011;7099;53.922;10.728;2024-02-14T15:20:36;10.47;;;5.27;;
14048;SDS011;7099;53.922;10.728;2024-02-14T15:24:42;8.07;;;5.50;;
14048;SDS011;7099;53.922;10.728;2024-02-14T15:33:02;7.87;;;5.40;;
14048;SDS011;7099;53.922;10.728;2024-02-14T16:02:02;14.57;;;7.87;;
14048;SDS011;7099;53.922;10.728;2024-02-14T16:06:08;19.73;;;8.50;;
14048;SDS011;7099;53.922;10.728;2024-02-14T16:10:14;17.97;;;9.37;;
14048;SDS011;7099;53.922;10.728;2024-02-14T16:14:20;14.50;;;8.00;;
14048;SDS011;7099;53.922;10.728;2024-02-14T16:18:26;15.83;;;7.70;;
14048;SDS011;7099;53.922;10.728;2024-02-14T16:22:32;11.43;;;7.63;;
14048;SDS011;7099;53.922;10.728;2024-02-14T16:26:38;20.67;;;7.73;;
14048;SDS011;7099;53.922;10.728;2024-02-14T16:34:50;15.87;;;8.43;;
14048;SDS011;7099;53.922;10.728;2024-02-14T16:38:55;16.20;;;9.10;;
14048;SDS011;7099;53.922;10.728;2024-02-14T16:43:01;15.40;;;8.07;;
14048;SDS011;7099;53.922;10.728;2024-02-14T16:47:08;12.40;;;8.43;;
14048;SDS011;7099;53.922;10.728;2024-02-14T16:51:15;15.33;;;8.50;;
14048;SDS011;7099;53.922;10.728;2024-02-14T16:55:22;16.37;;;9.00;;
14048;SDS011;7099;53.922;10.728;2024-02-14T16:59:28;14.20;;;8.50;;
14048;SDS011;7099;53.922;10.728;2024-02-14T17:03:33;15.93;;;8.67;;
14048;SDS011;7099;53.922;10.728;2024-02-14T17:07:50;15.83;;;8.20;;
14048;SDS011;7099;53.922;10.728;2024-02-14T17:11:55;15.13;;;8.67;;
14048;SDS011;7099;53.922;10.728;2024-02-14T17:16:01;16.27;;;10.00;;
14048;SDS011;7099;53.922;10.728;2024-02-14T17:20:07;22.10;;;10.40;;
14048;SDS011;7099;53.922;10.728;2024-02-14T17:24:14;17.07;;;8.93;;
14048;SDS011;7099;53.922;10.728;2024-02-14T17:28:20;23.77;;;10.67;;
14048;SDS011;7099;53.922;10.728;2024-02-14T17:32:26;19.27;;;9.90;;
14048;SDS011;7099;53.922;10.728;2024-02-14T17:36:43;19.15;;;10.60;;
14048;SDS011;7099;53.922;10.728;2024-02-14T17:40:49;31.00;;;12.75;;
14048;SDS011;7099;53.922;10.728;2024-02-14T17:44:58;30.40;;;12.27;;
14048;SDS011;7099;53.922;10.728;2024-02-14T17:49:03;26.53;;;12.80;;
14048;SDS011;7099;53.922;10.728;2024-02-14T17:53:12;28.75;;;13.10;;
14048;SDS011;7099;53.922;10.728;2024-02-14T18:05:29;26.20;;;12.57;;
14048;SDS011;7099;53.922;10.728;2024-02-14T18:09:35;26.70;;;11.80;;
14048;SDS011;7099;53.922;10.728;2024-02-14T20:04:38;23.73;;;10.80;;
14048;SDS011;7099;53.922;10.728;2024-02-14T20:08:44;21.77;;;10.70;;
14048;SDS011;7099;53.922;10.728;2024-02-14T20:12:49;24.87;;;11.17;;
14048;SDS011;7099;53.922;10.728;2024-02-14T20:16:55;24.50;;;11.40;;
14048;SDS011;7099;53.922;10.728;2024-02-14T20:21:01;22.20;;;11.03;;
14048;SDS011;7099;53.922;10.728;2024-02-14T20:25:09;26.43;;;11.00;;
14048;SDS011;7099;53.922;10.728;2024-02-14T20:29:16;25.17;;;10.80;;
14048;SDS011;7099;53.922;10.728;2024-02-14T20:33:22;27.40;;;10.97;;
14048;SDS011;7099;53.922;10.728;2024-02-14T20:37:30;25.53;;;11.10;;
14048;SDS011;7099;53.922;10.728;2024-02-14T20:41:36;29.23;;;13.23;;
14048;SDS011;7099;53.922;10.728;2024-02-14T20:45:42;25.93;;;11.53;;
14048;SDS011;7099;53.922;10.728;2024-02-14T20:49:48;31.40;;;13.10;;
14048;SDS011;7099;53.922;10.728;2024-02-14T20:53:53;33.60;;;13.90;;
14048;SDS011;7099;53.922;10.728;2024-02-14T20:57:59;36.23;;;14.73;;
14048;SDS011;7099;53.922;10.728;2024-02-14T21:02:05;34.93;;;14.30;;
14048;SDS011;7099;53.922;10.728;2024-02-14T21:06:11;31.17;;;14.50;;
14048;SDS011;7099;53.922;10.728;2024-02-14T21:10:16;31.15;;;13.95;;
14048;SDS011;7099;53.922;10.728;2024-02-14T21:14:24;35.80;;;14.00;;
14048;SDS011;7099;53.922;10.728;2024-02-14T21:18:30;43.60;;;15.90;;
14048;SDS011;7099;53.922;10.728;2024-02-14T21:22:36;34.93;;;15.00;;
14048;SDS011;7099;53.922;10.728;2024-02-14T21:26:41;39.97;;;15.37;;
14048;SDS011;7099;53.922;10.728;2024-02-14T21:30:49;47.90;;;16.47;;
14048;SDS011;7099;53.922;10.728;2024-02-14T21:34:55;42.17;;;15.93;;
14048;SDS011;7099;53.922;10.728;2024-02-14T21:39:00;49.33;;;15.23;;
14048;SDS011;7099;53.922;10.728;2024-02-14T21:43:08;45.53;;;16.50;;
14048;SDS011;7099;53.922;10.728;2024-02-14T21:47:14;36.30;;;14.97;;
14048;SDS011;7099;53.922;10.728;2024-02-14T21:51:21;44.60;;;15.77;;
14048;SDS011;7099;53.922;10.728;2024-02-14T21:55:26;41.77;;;15.47;;
14048;SDS011;7099;53.922;10.728;2024-02-14T21:59:32;44.67;;;15.70;;
14048;SDS011;7099;53.922;10.728;2024-02-14T22:03:38;47.20;;;16.37;;
14048;SDS011;7099;53.922;10.728;2024-02-14T22:07:44;52.17;;;16.47;;
14048;SDS011;7099;53.922;10.728;2024-02-14T22:11:50;60.20;;;17.70;;
14048;SDS011;7099;53.922;10.728;2024-02-14T22:15:55;69.90;;;17.30;;
14048;SDS011;7099;53.922;10.728;2024-02-14T22:20:01;61.73;;;17.37;;
14048;SDS011;7099;53.922;10.728;2024-02-14T22:24:07;64.53;;;17.67;;
14048;SDS011;7099;53.922;10.728;2024-02-14T22:28:14;51.23;;;16.63;;
14048;SDS011;7099;53.922;10.728;2024-02-14T22:32:20;66.50;;;18.90;;
14048;SDS011;7099;53.922;10.728;2024-02-14T22:36:25;53.93;;;17.37;;
14048;SDS011;7099;53.922;10.728;2024-02-14T22:40:31;45.73;;;16.03;;
14048;SDS011;7099;53.922;10.728;2024-02-14T22:44:38;55.90;;;17.27;;
14048;SDS011;7099;53.922;10.728;2024-02-14T22:48:43;61.40;;;17.60;;
14048;SDS011;7099;53.922;10.728;2024-02-14T22:52:49;52.93;;;16.83;;
14048;SDS011;7099;53.922;10.728;2024-02-14T22:56:55;60.70;;;17.07;;
14048;SDS011;7099;53.922;10.728;2024-02-14T23:01:00;47.83;;;15.93;;
14048;SDS011;7099;53.922;10.728;2024-02-14T23:05:06;47.83;;;15.50;;
14048;SDS011;7099;53.922;10.728;2024-02-14T23:09:13;52.40;;;15.50;;
14048;SDS011;7099;53.922;10.728;2024-02-14T23:13:20;51.60;;;15.77;;
14048;SDS011;7099;53.922;10.728;2024-02-14T23:17:25;47.10;;;15.60;;
14048;SDS011;7099;53.922;10.728;2024-02-14T23:21:31;54.00;;;16.67;;
14048;SDS011;7099;53.922;10.728;2024-02-14T23:25:36;51.13;;;15.97;;
14048;SDS011;7099;53.922;10.728;2024-02-14T23:29:42;54.70;;;16.40;;
14048;SDS011;7099;53.922;10.728;2024-02-14T23:33:47;54.17;;;16.50;;
14048;SDS011;7099;53.922;10.728;2024-02-14T23:37:53;53.67;;;16.30;;
14048;SDS011;7099;53.922;10.728;2024-02-14T23:42:01;56.70;;;15.83;;
14048;SDS011;7099;53.922;10.728;2024-02-14T23:46:08;55.63;;;15.93;;
14048;SDS011;7099;53.922;10.728;2024-02-14T23:50:13;50.10;;;15.30;;
14048;SDS011;7099;53.922;10.728;2024-02-14T23:54:21;70.50;;;15.97;;
14048;SDS011;7099;53.922;10.728;2024-02-14T23:58:26;56.17;;;15.40;;
